Time;durP1;ratioP1;P1;durP2;ratioP2;P2;SDS_P1;SDS_P2;PMS_P1;PMS_P2;Temp;Humidity;BMP_temperature;BMP_pressure;BME280_temperature;BME280_humidity;BME280_pressure;Samples;Min_cycle;Max_cycle;Signal;HPM_P1;HPM_P2
2024/01/19 00:00:47;;;;;;;31.40;26.40;;;;;;;-2.22;100.00;96741.13;107015;1259;23124;-78
2024/01/19 00:03:35;;;;;;;38.30;30.80;;;;;;;-2.22;100.00;96749.00;107245;1260;25358;-75
2024/01/19 00:06:03;;;;;;;32.20;28.30;;;;;;;-2.22;100.00;96761.83;106964;1275;22566;-75
2024/01/19 00:51:08;;;;;;;32.60;29.60;;;;;;;-2.00;100.00;96835.60;107214;1275;23201;-85
2024/01/19 00:53:37;;;;;;;32.40;29.20;;;;;;;-2.02;100.00;96840.20;107528;1273;22548;-85
2024/01/19 00:56:07;;;;;;;31.00;27.90;;;;;;;-2.06;100.00;96839.14;107588;1272;23924;-86
2024/01/19 00:58:40;;;;;;;31.90;28.70;;;;;;;-2.02;100.00;96847.33;107729;1275;23042;-91
2024/01/19 01:01:09;;;;;;;31.50;28.10;;;;;;;-1.97;100.00;96846.81;108048;1279;24250;-87
2024/01/19 01:03:37;;;;;;;33.50;30.40;;;;;;;-1.94;100.00;96857.48;107967;1279;22539;-92
2024/01/19 01:06:05;;;;;;;33.50;30.30;;;;;;;-1.93;100.00;96860.34;108156;1279;22565;-92
2024/01/19 01:08:35;;;;;;;35.50;32.10;;;;;;;-1.94;100.00;96859.84;107613;1276;22722;-92
2024/01/19 01:11:06;;;;;;;33.70;30.50;;;;;;;-1.99;100.00;96857.93;107820;1272;22714;-88
2024/01/19 01:13:35;;;;;;;33.10;29.90;;;;;;;-2.00;100.00;96862.93;106992;1257;24203;-88
2024/01/19 01:16:04;;;;;;;34.30;30.90;;;;;;;-2.02;100.00;96863.85;106926;1272;22775;-87
2024/01/19 01:18:33;;;;;;;37.20;33.60;;;;;;;-2.03;100.00;96860.99;107030;1278;23117;-87
2024/01/19 01:21:01;;;;;;;38.80;35.00;;;;;;;-2.08;100.00;96866.41;107113;1266;22635;-87
2024/01/19 01:23:31;;;;;;;37.00;33.50;;;;;;;-2.13;100.00;96877.70;106884;1279;24238;-87
2024/01/19 01:25:59;;;;;;;36.30;32.90;;;;;;;-2.14;100.00;96884.08;107198;1278;22753;-86
2024/01/19 01:28:27;;;;;;;37.20;33.70;;;;;;;-2.12;100.00;96890.23;107045;1278;24222;-88
2024/01/19 01:30:55;;;;;;;37.10;33.60;;;;;;;-2.14;100.00;96894.30;107368;1278;22540;-89
2024/01/19 01:33:23;;;;;;;39.00;35.50;;;;;;;-2.14;100.00;96894.83;107068;1266;22565;-87
2024/01/19 01:35:57;;;;;;;40.10;36.50;;;;;;;-2.17;100.00;96899.91;107092;1278;22584;-86
2024/01/19 01:39:11;;;;;;;39.30;35.40;;;;;;;-2.19;100.00;96906.85;106955;1278;25376;-88
2024/01/19 01:41:44;;;;;;;;;;;;;;;-2.21;100.00;96909.45;107151;1272;22623;-87
2024/01/19 01:45:13;;;;;;;38.90;35.10;;;;;;;-2.22;100.00;96913.40;107256;1278;25907;-89
2024/01/19 01:47:42;;;;;;;41.30;37.50;;;;;;;-2.27;100.00;96908.47;107033;1273;25504;-88
2024/01/19 01:50:10;;;;;;;42.90;38.70;;;;;;;-2.24;100.00;96910.98;107094;1278;22652;-87
2024/01/19 01:52:38;;;;;;;40.90;37.10;;;;;;;-2.26;100.00;96910.27;107126;1270;22746;-86
2024/01/19 01:55:07;;;;;;;38.90;35.30;;;;;;;-2.21;100.00;96921.23;107177;1272;22790;-88
2024/01/19 01:57:35;;;;;;;39.30;35.50;;;;;;;-2.20;100.00;96927.05;108096;1278;22593;-86
2024/01/19 02:00:04;;;;;;;36.80;33.30;;;;;;;-2.18;100.00;96928.55;108444;1278;22557;-86
2024/01/19 02:02:32;;;;;;;40.10;36.20;;;;;;;-2.13;100.00;96927.09;107157;1278;25325;-86
2024/01/19 02:05:40;;;;;;;40.80;36.80;;;;;;;-2.16;100.00;96929.75;107169;1278;24351;-85
2024/01/19 02:08:11;;;;;;;38.20;34.60;;;;;;;-2.18;100.00;96930.50;107188;1272;22690;-87
2024/01/19 02:10:40;;;;;;;38.00;34.40;;;;;;;-2.19;100.00;96933.27;107748;1278;22576;-85
2024/01/19 02:13:08;;;;;;;36.30;32.80;;;;;;;-2.19;100.00;96934.77;108435;1277;22527;-86
2024/01/19 02:15:37;;;;;;;36.50;33.00;;;;;;;-2.20;100.00;96942.60;108211;1272;22492;-86
2024/01/19 02:18:05;;;;;;;41.50;37.50;;;;;;;-2.22;100.00;96942.79;107362;1278;22532;-89
2024/01/19 02:20:34;;;;;;;39.10;35.40;;;;;;;-2.25;100.00;96944.69;108602;1256;22485;-85
2024/01/19 02:23:04;;;;;;;35.90;32.50;;;;;;;-2.25;100.00;96946.95;109103;1267;25245;-86
2024/01/19 02:25:58;;;;;;;36.20;32.80;;;;;;;-2.24;100.00;96948.20;108279;1278;22557;-87
2024/01/19 02:28:27;;;;;;;37.00;33.50;;;;;;;-2.25;100.00;96951.41;107497;1278;22708;-87
2024/01/19 02:31:15;;;;;;;33.30;30.00;;;;;;;-2.32;100.00;96965.13;106996;1278;22565;-88
2024/01/19 02:33:43;;;;;;;34.40;31.20;;;;;;;-2.34;100.00;96966.77;107153;1278;22568;-86
2024/01/19 02:36:11;;;;;;;35.10;31.30;;;;;;;-2.37;100.00;96971.52;107092;1270;25485;-86
2024/01/19 02:38:40;;;;;;;34.50;31.10;;;;;;;-2.41;100.00;96979.11;106901;1278;25340;-86
2024/01/19 02:46:10;;;;;;;33.10;29.70;;;;;;;-2.49;100.00;96978.71;107089;1278;26511;-87
2024/01/19 02:48:38;;;;;;;36.60;32.10;;;;;;;-2.53;100.00;96982.08;107120;1272;24269;-87
2024/01/19 02:51:06;;;;;;;39.90;29.20;;;;;;;-2.52;100.00;96989.05;107125;1278;22751;-87
2024/01/19 02:53:34;;;;;;;34.10;30.70;;;;;;;-2.53;100.00;96991.77;107192;1278;23396;-87
2024/01/19 03:00:48;;;;;;;30.20;27.20;;;;;;;-2.62;100.00;97002.91;106957;1279;24234;-86
2024/01/19 03:03:16;;;;;;;32.00;29.00;;;;;;;-2.63;100.00;97003.52;106980;1279;22528;-86
2024/01/19 03:05:45;;;;;;;31.70;28.70;;;;;;;-2.65;100.00;97008.16;107025;1279;25962;-86
2024/01/19 03:08:13;;;;;;;32.40;29.20;;;;;;;-2.70;100.00;97012.50;107028;1279;22583;-88
2024/01/19 03:15:00;;;;;;;31.50;28.60;;;;;;;-2.80;100.00;97012.28;107931;1279;22577;-87
2024/01/19 03:17:28;;;;;;;31.90;28.80;;;;;;;-2.84;100.00;97019.52;108873;1278;22559;-87
2024/01/19 03:19:56;;;;;;;34.30;30.90;;;;;;;-2.87;100.00;97027.31;107171;1278;24067;-88
2024/01/19 03:22:25;;;;;;;34.40;31.10;;;;;;;-2.91;100.00;97033.15;107450;1278;24321;-89
2024/01/19 03:24:53;;;;;;;31.40;28.30;;;;;;;-2.95;100.00;97034.91;107367;1279;22604;-89
2024/01/19 03:27:21;;;;;;;30.20;27.20;;;;;;;-2.94;100.00;97042.30;107491;1279;22566;-91
2024/01/19 03:29:49;;;;;;;33.20;29.80;;;;;;;-2.91;100.00;97049.06;107601;1279;25348;-90
2024/01/19 03:32:18;;;;;;;31.50;28.50;;;;;;;-2.93;100.00;97055.88;107511;1277;22552;-90
2024/01/19 03:34:46;;;;;;;29.10;26.30;;;;;;;-2.99;100.00;97060.46;107441;1278;25424;-89
2024/01/19 03:37:15;;;;;;;31.20;27.80;;;;;;;-2.99;100.00;97063.56;109436;1273;22555;-90
2024/01/19 03:39:43;;;;;;;29.50;26.70;;;;;;;-2.99;100.00;97067.47;108899;1278;25437;-90
2024/01/19 03:42:11;;;;;;;29.10;26.30;;;;;;;-2.95;100.00;97072.49;107244;1278;22594;-90
2024/01/19 03:44:40;;;;;;;29.30;26.60;;;;;;;-2.96;100.00;97081.08;107206;1256;25746;-90
2024/01/19 03:47:08;;;;;;;30.70;27.80;;;;;;;-2.99;100.00;97088.13;107005;1256;24331;-90
2024/01/19 03:49:36;;;;;;;29.90;26.90;;;;;;;-3.03;100.00;97098.06;107104;1272;22566;-89
2024/01/19 03:52:07;;;;;;;27.50;24.30;;;;;;;-3.07;100.00;97098.61;106906;1278;22551;-89
2024/01/19 03:54:36;;;;;;;27.80;25.00;;;;;;;-3.06;100.00;97091.72;106903;1279;25255;-89
2024/01/19 03:57:09;;;;;;;28.00;25.20;;;;;;;-3.08;100.00;97095.86;107593;1277;22537;-89
2024/01/19 03:59:37;;;;;;;28.10;25.40;;;;;;;-3.11;100.00;97102.20;107030;1278;24195;-91
2024/01/19 04:02:05;;;;;;;26.20;23.70;;;;;;;-3.18;100.00;97106.96;107693;1278;22706;-89
2024/01/19 04:04:33;;;;;;;24.30;21.90;;;;;;;-3.24;100.00;97118.36;107354;1278;24764;-90
2024/01/19 04:11:17;;;;;;;27.70;24.80;;;;;;;-3.30;100.00;97126.02;107462;1275;22624;-89
2024/01/19 04:13:45;;;;;;;26.30;23.90;;;;;;;-3.32;100.00;97127.30;107141;1272;22537;-89
2024/01/19 04:16:13;;;;;;;24.90;22.60;;;;;;;-3.32;100.00;97131.52;107304;1278;23129;-90
2024/01/19 04:18:42;;;;;;;25.20;22.70;;;;;;;-3.28;100.00;97127.40;107560;1279;22497;-86
2024/01/19 04:21:10;;;;;;;23.70;21.20;;;;;;;-3.29;100.00;97123.16;109371;1276;22543;-86
2024/01/19 04:23:38;;;;;;;25.80;23.30;;;;;;;-3.31;100.00;97120.52;108888;1277;22557;-90
2024/01/19 04:26:06;;;;;;;24.70;22.20;;;;;;;-3.34;100.00;97125.37;107155;1278;24141;-89
2024/01/19 04:28:59;;;;;;;23.80;21.60;;;;;;;-3.35;100.00;97120.48;107369;1272;23127;-90
2024/01/19 04:31:27;;;;;;;25.70;23.20;;;;;;;-3.32;100.00;97119.94;108018;1278;23013;-90
2024/01/19 04:33:55;;;;;;;25.20;22.50;;;;;;;-3.31;100.00;97127.66;107794;1279;24052;-90
2024/01/19 04:36:24;;;;;;;24.20;21.90;;;;;;;-3.29;100.00;97140.91;106992;1279;24298;-89
2024/01/19 04:38:53;;;;;;;25.50;23.20;;;;;;;-3.24;100.00;97151.34;107162;1279;24054;-89
2024/01/19 04:41:21;;;;;;;26.90;24.10;;;;;;;-3.25;100.00;97158.96;108120;1278;22650;-90
2024/01/19 04:43:51;;;;;;;26.70;24.20;;;;;;;-3.27;100.00;97160.92;107097;1278;22582;-85
2024/01/19 04:46:19;;;;;;;28.70;25.70;;;;;;;-3.26;100.00;97172.77;107069;1276;22556;-85
2024/01/19 04:48:47;;;;;;;28.30;25.60;;;;;;;-3.23;100.00;97169.35;106861;1269;24191;-85
2024/01/19 04:51:15;;;;;;;28.80;25.90;;;;;;;-3.24;100.00;97164.75;107042;1275;24340;-83
2024/01/19 04:53:43;;;;;;;28.90;26.10;;;;;;;-3.27;100.00;97159.20;107031;1273;25233;-83
2024/01/19 04:56:11;;;;;;;27.50;24.90;;;;;;;-3.24;100.00;97165.84;106930;1269;25501;-82
2024/01/19 04:58:39;;;;;;;28.30;25.70;;;;;;;-3.20;100.00;97180.48;107303;1276;22547;-89
2024/01/19 05:01:08;;;;;;;28.30;25.50;;;;;;;-3.17;100.00;97200.63;107032;1278;22556;-86
2024/01/19 05:03:37;;;;;;;26.60;24.00;;;;;;;-3.16;100.00;97207.60;106990;1273;22569;-85
2024/01/19 05:06:05;;;;;;;27.00;24.30;;;;;;;-3.19;100.00;97218.98;107074;1267;22688;-84
2024/01/19 05:09:13;;;;;;;31.30;28.50;;;;;;;-3.18;100.00;97224.73;106913;1279;22845;-85
2024/01/19 05:13:03;;;;;;;31.90;29.00;;;;;;;-3.18;100.00;97237.38;107273;1264;22593;-86
2024/01/19 05:16:41;;;;;;;30.90;28.00;;;;;;;-3.18;100.00;97245.77;107046;1275;22586;-84
2024/01/19 05:19:50;;;;;;;25.30;22.90;;;;;;;-3.21;100.00;97257.05;107052;1279;22745;-85
2024/01/19 05:23:19;;;;;;;26.10;23.60;;;;;;;-3.31;100.00;97256.74;107406;1278;22634;-85
2024/01/19 05:26:27;;;;;;;30.40;27.40;;;;;;;-3.32;100.00;97268.66;107059;1278;23684;-81
2024/01/19 05:28:55;;;;;;;32.80;29.60;;;;;;;-3.32;100.00;97275.82;106842;1269;22541;-81
2024/01/19 05:31:23;;;;;;;32.60;29.20;;;;;;;-3.36;100.00;97268.34;107083;1272;24226;-81
2024/01/19 05:33:51;;;;;;;30.60;26.70;;;;;;;-3.39;100.00;97273.65;107003;1266;23421;-82
2024/01/19 05:36:20;;;;;;;28.70;25.80;;;;;;;-3.42;100.00;97271.73;107045;1263;22598;-82
2024/01/19 05:38:48;;;;;;;27.70;24.90;;;;;;;-3.43;100.00;97269.60;107104;1272;26643;-82
2024/01/19 05:41:22;;;;;;;27.70;25.00;;;;;;;-3.41;100.00;97275.33;107117;1263;24310;-83
2024/01/19 05:43:51;;;;;;;28.30;25.50;;;;;;;-3.40;100.00;97276.36;106793;1265;22534;-83
2024/01/19 05:46:19;;;;;;;30.90;27.80;;;;;;;-3.44;100.00;97280.37;107019;1272;22540;-83
2024/01/19 05:48:49;;;;;;;36.30;30.20;;;;;;;-3.50;100.00;97282.42;107387;1278;24176;-83
2024/01/19 05:51:17;;;;;;;47.90;34.20;;;;;;;-3.57;100.00;97281.99;107458;1278;22762;-82
2024/01/19 05:53:48;;;;;;;52.50;30.80;;;;;;;-3.65;100.00;97286.52;107528;1279;22608;-82
2024/01/19 05:56:16;;;;;;;40.30;32.60;;;;;;;-3.68;100.00;97289.64;107282;1273;22684;-83
2024/01/19 05:58:44;;;;;;;55.00;31.70;;;;;;;-3.70;100.00;97306.46;107037;1278;22537;-82
2024/01/19 06:01:12;;;;;;;36.90;31.00;;;;;;;-3.69;100.00;97313.26;107073;1278;24202;-83
2024/01/19 06:03:41;;;;;;;39.70;33.40;;;;;;;-3.68;100.00;97318.88;107007;1279;23188;-84
2024/01/19 06:06:10;;;;;;;35.90;31.20;;;;;;;-3.71;100.00;97325.06;107471;1276;25331;-84
2024/01/19 06:08:38;;;;;;;36.20;27.50;;;;;;;-3.69;100.00;97327.47;106971;1279;22958;-83
2024/01/19 06:11:06;;;;;;;29.30;26.30;;;;;;;-3.65;100.00;97330.58;107249;1278;22580;-86
2024/01/19 06:13:39;;;;;;;31.00;26.90;;;;;;;-3.59;100.00;97345.64;107214;1279;22562;-83
2024/01/19 06:16:09;;;;;;;31.00;24.80;;;;;;;-3.57;100.00;97347.02;107140;1257;22527;-83
2024/01/19 06:18:37;;;;;;;28.60;23.50;;;;;;;-3.57;100.00;97355.81;107005;1272;23312;-84
2024/01/19 06:21:09;;;;;;;25.90;22.80;;;;;;;-3.59;100.00;97356.45;106962;1270;22536;-83
2024/01/19 06:23:38;;;;;;;23.80;20.00;;;;;;;-3.62;100.00;97358.62;107054;1272;22532;-83
2024/01/19 06:26:09;;;;;;;22.80;20.10;;;;;;;-3.64;100.00;97363.83;106824;1270;26097;-81
2024/01/19 06:28:42;;;;;;;26.60;21.70;;;;;;;-3.67;100.00;97366.77;107028;1268;22640;-86
2024/01/19 06:31:10;;;;;;;26.80;23.10;;;;;;;-3.71;100.00;97360.02;106984;1276;22639;-83
2024/01/19 06:33:38;;;;;;;30.70;23.60;;;;;;;-3.72;100.00;97366.24;107175;1268;22658;-84
2024/01/19 06:36:09;;;;;;;32.90;20.80;;;;;;;-3.73;100.00;97371.39;107248;1272;24218;-84
2024/01/19 06:38:37;;;;;;;31.40;20.30;;;;;;;-3.73;100.00;97373.82;106945;1277;22549;-83
2024/01/19 06:41:05;;;;;;;23.20;17.90;;;;;;;-3.70;100.00;97374.39;106904;1278;22582;-83
2024/01/19 06:43:34;;;;;;;21.60;17.50;;;;;;;-3.66;100.00;97376.50;106940;1269;22658;-83
2024/01/19 06:46:04;;;;;;;23.90;20.40;;;;;;;-3.67;100.00;97377.73;107103;1272;22580;-82
2024/01/19 06:48:32;;;;;;;21.60;19.10;;;;;;;-3.67;100.00;97382.42;107255;1279;24161;-82
2024/01/19 06:51:01;;;;;;;23.60;21.10;;;;;;;-3.66;100.00;97385.41;107267;1279;22576;-82
2024/01/19 06:53:29;;;;;;;31.80;26.00;;;;;;;-3.69;100.00;97379.52;107084;1279;22587;-82
2024/01/19 06:55:57;;;;;;;39.80;32.30;;;;;;;-3.64;100.00;97381.37;106991;1279;25297;-83
2024/01/19 06:58:37;;;;;;;29.70;26.40;;;;;;;-3.60;100.00;97371.48;107047;1279;22537;-82
2024/01/19 07:01:05;;;;;;;24.50;21.90;;;;;;;-3.60;100.00;97367.11;106907;1278;25233;-81
2024/01/19 07:03:33;;;;;;;21.00;18.90;;;;;;;-3.63;100.00;97366.26;106981;1278;24756;-82
2024/01/19 07:06:02;;;;;;;19.70;17.60;;;;;;;-3.68;100.00;97364.90;107135;1269;22544;-81
2024/01/19 07:08:30;;;;;;;18.00;15.90;;;;;;;-3.70;100.00;97368.27;106932;1266;22642;-80
2024/01/19 07:10:58;;;;;;;21.00;18.90;;;;;;;-3.75;100.00;97369.16;106983;1273;24762;-82
2024/01/19 07:13:26;;;;;;;21.40;19.20;;;;;;;-3.76;100.00;97366.92;106918;1279;24127;-81
2024/01/19 07:15:57;;;;;;;22.60;20.20;;;;;;;-3.77;100.00;97380.75;107051;1275;24374;-81
2024/01/19 07:18:26;;;;;;;22.50;20.10;;;;;;;-3.79;100.00;97387.17;107086;1278;24262;-81
2024/01/19 07:21:00;;;;;;;22.70;20.30;;;;;;;-3.80;100.00;97385.85;107110;1267;25499;-81
2024/01/19 07:23:28;;;;;;;21.70;19.40;;;;;;;-3.82;100.00;97392.43;107153;1273;22543;-83
2024/01/19 07:25:58;;;;;;;21.90;19.50;;;;;;;-3.84;100.00;97406.50;106919;1266;24179;-83
2024/01/19 07:28:26;;;;;;;21.20;18.80;;;;;;;-3.78;100.00;97403.78;107226;1263;23888;-82
2024/01/19 07:30:54;;;;;;;21.60;19.50;;;;;;;-3.77;100.00;97400.55;106914;1272;22835;-82
2024/01/19 07:33:22;;;;;;;22.80;20.40;;;;;;;-3.79;100.00;97394.17;107035;1278;22547;-86
2024/01/19 07:35:59;;;;;;;22.00;19.70;;;;;;;-3.82;100.00;97389.43;106891;1276;24280;-83
2024/01/19 07:38:28;;;;;;;20.60;18.50;;;;;;;-3.86;100.00;97388.95;106867;1279;25290;-81
2024/01/19 07:40:57;;;;;;;20.00;17.90;;;;;;;-3.87;100.00;97390.51;106889;1278;22541;-82
2024/01/19 07:43:25;;;;;;;19.20;17.20;;;;;;;-3.86;100.00;97395.54;106957;1267;22795;-82
2024/01/19 07:45:53;;;;;;;18.00;16.30;;;;;;;-3.88;100.00;97405.13;106995;1268;22565;-84
2024/01/19 07:48:21;;;;;;;17.80;16.20;;;;;;;-3.91;100.00;97405.00;107220;1267;22553;-84
2024/01/19 07:50:49;;;;;;;17.50;15.70;;;;;;;-3.93;100.00;97410.64;107350;1270;22622;-85
2024/01/19 07:53:20;;;;;;;17.00;15.40;;;;;;;-3.92;100.00;97404.31;107566;1278;22622;-84
2024/01/19 07:55:49;;;;;;;20.30;18.20;;;;;;;-3.91;100.00;97404.67;107256;1278;22536;-85
2024/01/19 07:58:17;;;;;;;21.20;16.70;;;;;;;-3.92;100.00;97400.47;107101;1278;25347;-83
2024/01/19 08:00:45;;;;;;;19.70;17.60;;;;;;;-3.92;100.00;97403.48;107191;1278;24263;-84
2024/01/19 08:03:21;;;;;;;18.90;16.90;;;;;;;-3.88;100.00;97411.33;107267;1279;22533;-83
2024/01/19 08:05:49;;;;;;;18.90;17.00;;;;;;;-3.82;100.00;97415.30;106963;1276;23305;-82
2024/01/19 08:08:43;;;;;;;18.00;16.20;;;;;;;-3.77;100.00;97418.23;107226;1266;22486;-84
2024/01/19 08:11:14;;;;;;;19.30;17.30;;;;;;;-3.71;100.00;97423.09;107653;1279;24206;-84
2024/01/19 08:13:43;;;;;;;19.90;17.90;;;;;;;-3.68;100.00;97420.46;107106;1278;22688;-84
2024/01/19 08:16:12;;;;;;;31.30;18.90;;;;;;;-3.63;100.00;97420.86;106966;1279;22532;-84
2024/01/19 08:18:40;;;;;;;22.10;18.50;;;;;;;-3.55;100.00;97428.91;107545;1276;22538;-83
2024/01/19 08:21:08;;;;;;;24.10;19.60;;;;;;;-3.48;100.00;97431.88;107093;1278;23900;-82
2024/01/19 08:23:38;;;;;;;22.40;20.10;;;;;;;-3.47;100.00;97435.10;107513;1278;22479;-83
2024/01/19 08:26:06;;;;;;;20.30;18.30;;;;;;;-3.44;100.00;97435.85;107277;1278;22576;-83
2024/01/19 08:28:35;;;;;;;22.70;20.20;;;;;;;-3.40;100.00;97450.30;106934;1279;25238;-84
2024/01/19 08:31:03;;;;;;;25.40;21.30;;;;;;;-3.31;100.00;97458.31;106877;1278;22550;-83
2024/01/19 08:33:31;;;;;;;22.30;19.60;;;;;;;-3.25;100.00;97464.88;107078;1267;24183;-82
2024/01/19 08:36:01;;;;;;;23.30;20.00;;;;;;;-3.26;100.00;97475.60;107117;1278;24392;-83
2024/01/19 08:38:30;;;;;;;25.60;23.00;;;;;;;-3.24;100.00;97478.13;106974;1279;22582;-83
2024/01/19 08:41:00;;;;;;;26.90;22.10;;;;;;;-3.20;100.00;97486.14;107065;1263;22576;-81
2024/01/19 08:48:15;;;;;;;27.60;24.80;;;;;;;-3.02;100.00;97509.05;107312;1260;24364;-84
2024/01/19 08:50:44;;;;;;;28.80;26.00;;;;;;;-2.96;100.00;97513.52;107011;1278;23324;-84
2024/01/19 08:53:12;;;;;;;28.40;25.60;;;;;;;-2.89;100.00;97524.30;106994;1277;22543;-83
2024/01/19 08:55:42;;;;;;;25.20;22.70;;;;;;;-2.83;100.00;97533.41;107043;1279;25333;-84
2024/01/19 08:58:10;;;;;;;25.70;23.30;;;;;;;-2.84;100.00;97539.75;107097;1279;25355;-85
2024/01/19 09:00:41;;;;;;;26.50;23.60;;;;;;;-2.83;100.00;97548.80;107356;1271;22566;-84
2024/01/19 09:03:17;;;;;;;24.50;22.20;;;;;;;-2.82;100.00;97557.69;107022;1273;22568;-84
2024/01/19 09:05:46;;;;;;;27.80;25.20;;;;;;;-2.86;100.00;97562.76;107383;1278;23492;-83
2024/01/19 09:08:14;;;;;;;24.90;22.40;;;;;;;-2.87;100.00;97574.90;107750;1278;25579;-85
2024/01/19 09:10:45;;;;;;;25.40;22.90;;;;;;;-2.88;100.00;97583.92;107200;1278;25326;-85
2024/01/19 09:13:13;;;;;;;30.20;27.10;;;;;;;-2.86;100.00;97589.42;107217;1278;25353;-86
2024/01/19 09:15:42;;;;;;;29.00;25.90;;;;;;;-2.85;100.00;97592.00;107298;1273;22534;-85
2024/01/19 09:18:11;;;;;;;28.60;25.50;;;;;;;-2.90;100.00;97597.70;107224;1276;22661;-84
2024/01/19 09:20:39;;;;;;;32.60;29.20;;;;;;;-2.90;100.00;97602.12;107111;1276;23351;-85
2024/01/19 09:23:07;;;;;;;33.30;30.20;;;;;;;-2.88;100.00;97602.61;107138;1271;25501;-83
2024/01/19 09:25:35;;;;;;;32.20;28.90;;;;;;;-2.80;100.00;97609.38;107222;1260;22590;-84
2024/01/19 09:28:04;;;;;;;29.10;26.10;;;;;;;-2.75;100.00;97609.52;107279;1263;22578;-84
2024/01/19 09:30:32;;;;;;;28.10;25.20;;;;;;;-2.75;100.00;97619.70;107806;1269;22494;-84
2024/01/19 09:33:03;;;;;;;27.30;24.60;;;;;;;-2.81;100.00;97628.39;107687;1276;22540;-85
2024/01/19 09:35:31;;;;;;;28.50;25.70;;;;;;;-2.84;99.97;97637.46;107427;1279;23917;-85
2024/01/19 09:37:59;;;;;;;27.50;24.80;;;;;;;-2.88;99.80;97634.46;107203;1270;24244;-84
2024/01/19 09:40:27;;;;;;;26.90;24.30;;;;;;;-2.88;99.93;97643.14;107058;1273;22537;-84
2024/01/19 09:43:03;;;;;;;29.10;26.10;;;;;;;-2.84;99.84;97641.31;107108;1275;25898;-85
2024/01/19 09:45:41;;;;;;;29.00;25.90;;;;;;;-2.81;99.19;97642.41;107114;1269;25354;-85
2024/01/19 09:48:30;;;;;;;31.90;28.50;;;;;;;-2.83;99.39;97637.85;107027;1278;25233;-85
2024/01/19 09:51:02;;;;;;;31.10;28.20;;;;;;;-2.79;99.25;97640.27;107160;1276;22637;-84
2024/01/19 09:53:34;;;;;;;31.70;27.50;;;;;;;-2.73;99.63;97640.59;107341;1276;22664;-85
2024/01/19 09:56:03;;;;;;;34.60;31.10;;;;;;;-2.66;99.19;97634.86;107044;1279;172399;-85
2024/01/19 09:58:31;;;;;;;38.50;34.40;;;;;;;-2.57;99.31;97629.70;107060;1279;22999;-85
2024/01/19 10:01:00;;;;;;;31.60;28.70;;;;;;;-2.50;99.07;97635.71;107633;1269;22580;-84
2024/01/19 10:03:30;;;;;;;29.10;26.40;;;;;;;-2.43;98.85;97636.43;107876;1278;22568;-85
2024/01/19 10:06:00;;;;;;;27.10;24.30;;;;;;;-2.38;98.56;97633.48;107080;1278;22533;-85
2024/01/19 10:08:28;;;;;;;28.70;25.60;;;;;;;-2.28;98.69;97629.55;107267;1273;22774;-85
2024/01/19 10:11:00;;;;;;;25.50;22.80;;;;;;;-2.13;97.85;97628.05;107127;1278;24303;-85
2024/01/19 10:13:28;;;;;;;24.20;21.80;;;;;;;-1.98;97.32;97643.21;107047;1277;22748;-84
2024/01/19 10:15:56;;;;;;;24.40;21.80;;;;;;;-2.01;96.28;97642.84;107165;1278;25377;-84
2024/01/19 10:18:25;;;;;;;24.50;22.10;;;;;;;-2.03;96.44;97642.30;107156;1279;22659;-85
2024/01/19 10:20:53;;;;;;;25.90;23.30;;;;;;;-2.05;96.34;97649.11;107029;1279;23883;-87
2024/01/19 10:23:23;;;;;;;24.80;22.30;;;;;;;-2.07;95.48;97648.72;107069;1259;22786;-85
2024/01/19 10:25:51;;;;;;;23.50;20.90;;;;;;;-2.17;95.43;97651.38;107362;1276;22840;-84
2024/01/19 10:28:33;;;;;;;26.30;23.70;;;;;;;-2.20;95.76;97646.13;107060;1271;24536;-85
2024/01/19 10:31:26;;;;;;;27.80;24.70;;;;;;;-2.20;95.95;97649.19;107108;1268;24250;-85
2024/01/19 10:33:58;;;;;;;29.50;26.40;;;;;;;-2.17;96.53;97644.64;107047;1269;23441;-86
2024/01/19 10:36:36;;;;;;;29.30;26.30;;;;;;;-2.08;97.01;97639.80;107420;1278;25577;-86
2024/01/19 10:39:24;;;;;;;28.50;25.70;;;;;;;-2.03;96.69;97641.72;107154;1279;22545;-87
2024/01/19 10:42:06;;;;;;;31.60;28.20;;;;;;;-2.03;96.29;97643.02;107113;1273;24385;-85
2024/01/19 10:44:34;;;;;;;37.20;28.60;;;;;;;-1.94;96.77;97643.15;107312;1273;23441;-86
2024/01/19 10:47:02;;;;;;;30.40;26.60;;;;;;;-1.90;95.89;97639.48;107196;1279;24398;-84
2024/01/19 10:49:34;;;;;;;28.70;25.60;;;;;;;-1.99;95.70;97646.47;107212;1276;24062;-83
2024/01/19 10:52:03;;;;;;;32.20;29.00;;;;;;;-1.98;96.60;97646.70;107188;1278;22539;-82
2024/01/19 10:54:35;;;;;;;31.10;27.90;;;;;;;-1.94;96.50;97647.82;107083;1278;24348;-83
2024/01/19 10:57:06;;;;;;;33.80;29.00;;;;;;;-1.97;95.81;97646.20;107229;1279;22545;-84
2024/01/19 10:59:35;;;;;;;31.90;28.60;;;;;;;-1.98;96.48;97638.63;107067;1276;22593;-84
2024/01/19 11:02:03;;;;;;;35.50;31.60;;;;;;;-1.87;96.76;97641.50;106874;1277;22534;-86
2024/01/19 11:04:34;;;;;;;32.30;28.80;;;;;;;-1.73;96.60;97648.19;107426;1275;25439;-84
2024/01/19 11:07:07;;;;;;;35.70;32.10;;;;;;;-1.74;96.13;97657.52;106998;1268;24322;-83
2024/01/19 11:09:35;;;;;;;32.40;29.30;;;;;;;-1.70;96.50;97657.52;107129;1275;22590;-83
2024/01/19 11:12:08;;;;;;;39.00;35.20;;;;;;;-1.57;96.21;97668.59;107115;1273;24378;-83
2024/01/19 11:14:38;;;;;;;33.50;30.30;;;;;;;-1.65;95.50;97672.64;107140;1278;22581;-84
2024/01/19 11:17:11;;;;;;;29.40;26.30;;;;;;;-1.74;95.39;97670.34;107328;1275;22642;-84
2024/01/19 11:19:39;;;;;;;28.20;25.50;;;;;;;-1.76;95.80;97673.79;107633;1275;24609;-85
2024/01/19 11:22:08;;;;;;;36.60;33.30;;;;;;;-1.84;95.53;97677.83;107209;1269;25407;-84
2024/01/19 11:24:37;;;;;;;37.40;33.60;;;;;;;-1.91;96.10;97677.48;107150;1279;22655;-86
2024/01/19 11:27:16;;;;;;;47.50;42.80;;;;;;;-1.91;96.22;97674.10;107398;1278;22576;-90
2024/01/19 11:29:59;;;;;;;46.80;42.10;;;;;;;-1.90;96.79;97670.06;107958;1273;22554;-88
2024/01/19 11:32:27;;;;;;;41.20;37.00;;;;;;;-1.86;96.82;97670.26;108271;1279;24296;-88
2024/01/19 11:34:56;;;;;;;36.90;32.90;;;;;;;-2.06;96.83;97639.42;107031;1268;22559;-89
2024/01/19 11:37:46;;;;;;;50.00;45.00;;;;;;;-1.95;96.97;97668.96;109142;1279;22564;-89
2024/01/19 11:40:50;;;;;;;38.40;34.70;;;;;;;-1.97;96.97;97666.64;109793;1279;23129;-88
2024/01/19 11:43:41;;;;;;;38.10;34.70;;;;;;;-1.92;96.95;97664.61;107497;1278;25945;-90
2024/01/19 11:46:10;;;;;;;40.40;36.40;;;;;;;-1.89;97.41;97666.11;107228;1279;22649;-88
2024/01/19 11:48:46;;;;;;;37.80;34.00;;;;;;;-1.80;97.71;97662.58;108162;1279;22567;-88
2024/01/19 11:51:35;;;;;;;40.20;36.20;;;;;;;-1.84;97.36;97665.93;108024;1278;24054;-88
2024/01/19 11:54:04;;;;;;;40.50;36.30;;;;;;;-1.87;97.23;97661.79;107514;1279;25396;-88
2024/01/19 11:56:33;;;;;;;42.40;38.20;;;;;;;-1.87;97.35;97659.21;107241;1279;22581;-89
2024/01/19 11:59:54;;;;;;;43.20;37.70;;;;;;;-1.75;97.03;97658.08;107843;1279;22565;-92
2024/01/19 12:02:26;;;;;;;34.80;31.30;;;;;;;-1.61;97.47;97661.97;109424;1273;22567;-91
2024/01/19 12:05:03;;;;;;;41.70;37.40;;;;;;;-1.50;97.62;97663.04;109556;1279;22749;-92
2024/01/19 12:07:35;;;;;;;44.30;39.90;;;;;;;-1.29;97.94;97664.90;108648;1278;22575;-91
2024/01/19 12:10:11;;;;;;;38.60;34.60;;;;;;;-1.09;97.46;97659.73;107583;1278;24202;-91
2024/01/19 12:12:42;;;;;;;34.90;31.20;;;;;;;-1.03;97.00;97664.95;107734;1273;25288;-92
2024/01/19 12:15:11;;;;;;;41.70;37.20;;;;;;;-0.93;96.98;97665.36;108700;1278;25417;-93
2024/01/19 12:17:40;;;;;;;47.20;42.80;;;;;;;-0.90;96.84;97675.44;108049;1278;25262;-91
2024/01/19 12:20:15;;;;;;;41.80;35.30;;;;;;;-1.06;96.71;97681.17;108514;1278;22573;-91
2024/01/19 12:22:46;;;;;;;40.50;36.20;;;;;;;-1.21;96.73;97684.05;108572;1278;23327;-92
2024/01/19 12:25:16;;;;;;;34.00;30.60;;;;;;;-1.38;96.35;97696.84;108286;1272;24158;-93
2024/01/19 12:27:47;;;;;;;30.00;27.00;;;;;;;-1.48;96.18;97687.88;107840;1278;24246;-90
2024/01/19 12:30:17;;;;;;;27.70;25.10;;;;;;;-1.49;96.47;97699.56;108149;1278;22561;-90
2024/01/19 12:32:46;;;;;;;29.30;26.10;;;;;;;-1.57;96.80;97703.66;108766;1278;22557;-89